sensor_id;sensor_type;location;lat;lon;timestamp;P1;durP1;ratioP1;P2;durP2;ratioP2
46875;SDS011;32866;50.160;14.768;2022-11-20T00:03:13;71.10;;;30.03;;
46875;SDS011;32866;50.160;14.768;2022-11-20T00:08:04;71.73;;;29.07;;
46875;SDS011;32866;50.160;14.768;2022-11-20T00:12:55;58.37;;;27.57;;
46875;SDS011;32866;50.160;14.768;2022-11-20T00:15:22;67.27;;;31.47;;
46875;SDS011;32866;50.160;14.768;2022-11-20T00:20:12;52.90;;;27.03;;
46875;SDS011;32866;50.160;14.768;2022-11-20T00:25:03;63.43;;;25.73;;
46875;SDS011;32866;50.160;14.768;2022-11-20T00:29:54;55.23;;;23.80;;
46875;SDS011;32866;50.160;14.768;2022-11-20T00:34:45;51.20;;;23.43;;
46875;SDS011;32866;50.160;14.768;2022-11-20T00:39:36;52.10;;;21.37;;
46875;SDS011;32866;50.160;14.768;2022-11-20T00:44:26;53.37;;;22.60;;
46875;SDS011;32866;50.160;14.768;2022-11-20T00:49:17;49.40;;;23.63;;
46875;SDS011;32866;50.160;14.768;2022-11-20T00:54:07;42.97;;;21.70;;
46875;SDS011;32866;50.160;14.768;2022-11-20T00:58:59;48.37;;;22.13;;
46875;SDS011;32866;50.160;14.768;2022-11-20T01:01:26;53.00;;;25.77;;
46875;SDS011;32866;50.160;14.768;2022-11-20T01:03:54;53.20;;;25.67;;
46875;SDS011;32866;50.160;14.768;2022-11-20T01:06:22;66.93;;;28.30;;
46875;SDS011;32866;50.160;14.768;2022-11-20T01:08:56;60.47;;;30.73;;
46875;SDS011;32866;50.160;14.768;2022-11-20T01:11:27;64.00;;;29.13;;
46875;SDS011;32866;50.160;14.768;2022-11-20T01:13:58;63.63;;;29.20;;
46875;SDS011;32866;50.160;14.768;2022-11-20T01:16:34;72.37;;;32.03;;
46875;SDS011;32866;50.160;14.768;2022-11-20T01:19:02;56.67;;;28.33;;
46875;SDS011;32866;50.160;14.768;2022-11-20T01:21:30;64.27;;;29.77;;
46875;SDS011;32866;50.160;14.768;2022-11-20T01:23:59;53.73;;;25.27;;
46875;SDS011;32866;50.160;14.768;2022-11-20T01:26:26;63.17;;;26.60;;
46875;SDS011;32866;50.160;14.768;2022-11-20T01:31:32;58.63;;;26.70;;
46875;SDS011;32866;50.160;14.768;2022-11-20T01:33:59;68.93;;;26.80;;
46875;SDS011;32866;50.160;14.768;2022-11-20T01:36:31;54.70;;;25.97;;
46875;SDS011;32866;50.160;14.768;2022-11-20T01:38:58;54.53;;;24.93;;
46875;SDS011;32866;50.160;14.768;2022-11-20T01:41:26;58.90;;;26.30;;
46875;SDS011;32866;50.160;14.768;2022-11-20T01:44:17;54.85;;;26.17;;
46875;SDS011;32866;50.160;14.768;2022-11-20T01:46:50;61.37;;;27.57;;
46875;SDS011;32866;50.160;14.768;2022-11-20T01:49:37;61.47;;;26.53;;
46875;SDS011;32866;50.160;14.768;2022-11-20T01:52:16;57.23;;;26.13;;
46875;SDS011;32866;50.160;14.768;2022-11-20T01:54:46;53.80;;;25.57;;
46875;SDS011;32866;50.160;14.768;2022-11-20T01:57:17;67.70;;;25.73;;
46875;SDS011;32866;50.160;14.768;2022-11-20T02:00:26;66.97;;;27.37;;
46875;SDS011;32866;50.160;14.768;2022-11-20T02:02:37;61.67;;;27.10;;
46875;SDS011;32866;50.160;14.768;2022-11-20T02:05:08;58.57;;;26.77;;
46875;SDS011;32866;50.160;14.768;2022-11-20T02:07:42;58.13;;;27.83;;
46875;SDS011;32866;50.160;14.768;2022-11-20T02:10:08;53.87;;;26.30;;
46875;SDS011;32866;50.160;14.768;2022-11-20T02:15:17;54.17;;;24.70;;
46875;SDS011;32866;50.160;14.768;2022-11-20T02:20:08;50.07;;;23.57;;
46875;SDS011;32866;50.160;14.768;2022-11-20T02:25:02;52.30;;;27.13;;
46875;SDS011;32866;50.160;14.768;2022-11-20T02:27:28;58.00;;;25.20;;
46875;SDS011;32866;50.160;14.768;2022-11-20T02:32:29;51.80;;;21.70;;
46875;SDS011;32866;50.160;14.768;2022-11-20T02:34:57;56.00;;;27.33;;
46875;SDS011;32866;50.160;14.768;2022-11-20T02:39:51;66.40;;;28.10;;
46875;SDS011;32866;50.160;14.768;2022-11-20T02:42:17;59.07;;;29.13;;
46875;SDS011;32866;50.160;14.768;2022-11-20T02:47:08;62.63;;;26.00;;
46875;SDS011;32866;50.160;14.768;2022-11-20T02:51:59;66.83;;;28.67;;
46875;SDS011;32866;50.160;14.768;2022-11-20T02:56:49;50.20;;;25.53;;
46875;SDS011;32866;50.160;14.768;2022-11-20T03:01:40;63.60;;;29.20;;
46875;SDS011;32866;50.160;14.768;2022-11-20T03:06:31;61.80;;;27.50;;
46875;SDS011;32866;50.160;14.768;2022-11-20T03:11:21;66.47;;;25.80;;
46875;SDS011;32866;50.160;14.768;2022-11-20T03:16:13;61.90;;;25.07;;
46875;SDS011;32866;50.160;14.768;2022-11-20T03:18:43;55.30;;;25.87;;
46875;SDS011;32866;50.160;14.768;2022-11-20T03:23:35;50.37;;;23.43;;
46875;SDS011;32866;50.160;14.768;2022-11-20T03:28:40;54.97;;;25.10;;
46875;SDS011;32866;50.160;14.768;2022-11-20T03:31:09;66.73;;;27.13;;
46875;SDS011;32866;50.160;14.768;2022-11-20T03:33:37;56.47;;;26.53;;
46875;SDS011;32866;50.160;14.768;2022-11-20T03:36:04;54.93;;;26.23;;
46875;SDS011;32866;50.160;14.768;2022-11-20T03:38:31;61.23;;;27.43;;
46875;SDS011;32866;50.160;14.768;2022-11-20T03:43:26;46.33;;;23.63;;
46875;SDS011;32866;50.160;14.768;2022-11-20T03:48:17;48.47;;;22.00;;
46875;SDS011;32866;50.160;14.768;2022-11-20T03:53:07;54.10;;;24.23;;
46875;SDS011;32866;50.160;14.768;2022-11-20T03:57:58;59.60;;;24.13;;
46875;SDS011;32866;50.160;14.768;2022-11-20T04:02:48;59.27;;;27.30;;
46875;SDS011;32866;50.160;14.768;2022-11-20T04:07:39;57.97;;;28.50;;
46875;SDS011;32866;50.160;14.768;2022-11-20T04:12:31;61.97;;;28.20;;
46875;SDS011;32866;50.160;14.768;2022-11-20T04:14:57;62.43;;;28.57;;
46875;SDS011;32866;50.160;14.768;2022-11-20T04:19:47;68.60;;;29.27;;
46875;SDS011;32866;50.160;14.768;2022-11-20T04:24:38;56.07;;;26.80;;
46875;SDS011;32866;50.160;14.768;2022-11-20T04:29:28;70.40;;;31.13;;
46875;SDS011;32866;50.160;14.768;2022-11-20T04:34:19;60.93;;;27.57;;
46875;SDS011;32866;50.160;14.768;2022-11-20T04:39:13;58.33;;;28.17;;
46875;SDS011;32866;50.160;14.768;2022-11-20T04:41:40;62.93;;;29.03;;
46875;SDS011;32866;50.160;14.768;2022-11-20T04:46:33;59.87;;;27.57;;
46875;SDS011;32866;50.160;14.768;2022-11-20T04:49:03;60.27;;;29.40;;
46875;SDS011;32866;50.160;14.768;2022-11-20T04:53:54;66.33;;;28.13;;
46875;SDS011;32866;50.160;14.768;2022-11-20T04:58:44;59.17;;;27.50;;
46875;SDS011;32866;50.160;14.768;2022-11-20T05:03:40;58.20;;;26.43;;
46875;SDS011;32866;50.160;14.768;2022-11-20T05:06:06;57.33;;;27.83;;
46875;SDS011;32866;50.160;14.768;2022-11-20T05:11:01;54.93;;;24.70;;
46875;SDS011;32866;50.160;14.768;2022-11-20T05:13:28;56.47;;;26.60;;
46875;SDS011;32866;50.160;14.768;2022-11-20T05:18:19;68.00;;;26.97;;
46875;SDS011;32866;50.160;14.768;2022-11-20T05:23:09;63.20;;;27.10;;
46875;SDS011;32866;50.160;14.768;2022-11-20T05:28:00;52.23;;;23.03;;
46875;SDS011;32866;50.160;14.768;2022-11-20T05:32:50;52.77;;;23.83;;
46875;SDS011;32866;50.160;14.768;2022-11-20T05:37:40;51.23;;;24.97;;
46875;SDS011;32866;50.160;14.768;2022-11-20T05:42:31;47.10;;;23.57;;
46875;SDS011;32866;50.160;14.768;2022-11-20T05:47:23;67.90;;;25.30;;
46875;SDS011;32866;50.160;14.768;2022-11-20T05:52:13;58.47;;;24.23;;
46875;SDS011;32866;50.160;14.768;2022-11-20T05:54:39;50.35;;;25.85;;
46875;SDS011;32866;50.160;14.768;2022-11-20T05:59:29;52.57;;;24.83;;
46875;SDS011;32866;50.160;14.768;2022-11-20T06:04:20;50.83;;;24.60;;
46875;SDS011;32866;50.160;14.768;2022-11-20T06:09:10;58.23;;;25.57;;
46875;SDS011;32866;50.160;14.768;2022-11-20T06:11:35;55.28;;;25.35;;
46875;SDS011;32866;50.160;14.768;2022-11-20T06:14:01;53.30;;;27.00;;
46875;SDS011;32866;50.160;14.768;2022-11-20T06:16:26;50.28;;;25.50;;
46875;SDS011;32866;50.160;14.768;2022-11-20T06:21:18;48.43;;;24.03;;
46875;SDS011;32866;50.160;14.768;2022-11-20T06:23:45;53.17;;;24.73;;
46875;SDS011;32866;50.160;14.768;2022-11-20T06:28:38;57.67;;;23.05;;
46875;SDS011;32866;50.160;14.768;2022-11-20T06:31:04;50.33;;;23.50;;
46875;SDS011;32866;50.160;14.768;2022-11-20T06:33:30;46.87;;;24.93;;
46875;SDS011;32866;50.160;14.768;2022-11-20T06:38:22;51.30;;;21.10;;
46875;SDS011;32866;50.160;14.768;2022-11-20T06:43:12;52.50;;;24.10;;
46875;SDS011;32866;50.160;14.768;2022-11-20T06:48:03;51.97;;;22.37;;
46875;SDS011;32866;50.160;14.768;2022-11-20T06:52:54;49.70;;;21.47;;
46875;SDS011;32866;50.160;14.768;2022-11-20T06:55:19;49.90;;;24.42;;
46875;SDS011;32866;50.160;14.768;2022-11-20T06:57:45;48.25;;;24.35;;
46875;SDS011;32866;50.160;14.768;2022-11-20T07:02:36;47.07;;;23.23;;
46875;SDS011;32866;50.160;14.768;2022-11-20T07:05:01;51.28;;;22.88;;
46875;SDS011;32866;50.160;14.768;2022-11-20T07:07:26;55.75;;;24.15;;
46875;SDS011;32866;50.160;14.768;2022-11-20T07:09:52;55.22;;;25.77;;
46875;SDS011;32866;50.160;14.768;2022-11-20T07:14:42;48.50;;;22.30;;
46875;SDS011;32866;50.160;14.768;2022-11-20T07:17:07;54.40;;;24.67;;
46875;SDS011;32866;50.160;14.768;2022-11-20T07:21:58;52.53;;;24.80;;
46875;SDS011;32866;50.160;14.768;2022-11-20T07:24:23;50.25;;;23.80;;
46875;SDS011;32866;50.160;14.768;2022-11-20T07:26:49;46.00;;;22.45;;
46875;SDS011;32866;50.160;14.768;2022-11-20T07:29:15;44.85;;;23.88;;
46875;SDS011;32866;50.160;14.768;2022-11-20T07:31:41;44.07;;;22.60;;
46875;SDS011;32866;50.160;14.768;2022-11-20T07:36:32;49.60;;;22.53;;
46875;SDS011;32866;50.160;14.768;2022-11-20T07:38:57;41.38;;;21.27;;
46875;SDS011;32866;50.160;14.768;2022-11-20T07:41:23;49.05;;;24.35;;
46875;SDS011;32866;50.160;14.768;2022-11-20T07:43:48;51.08;;;23.58;;
46875;SDS011;32866;50.160;14.768;2022-11-20T07:46:13;52.00;;;27.00;;
46875;SDS011;32866;50.160;14.768;2022-11-20T07:48:39;40.95;;;23.08;;
46875;SDS011;32866;50.160;14.768;2022-11-20T07:51:04;47.60;;;22.92;;
46875;SDS011;32866;50.160;14.768;2022-11-20T07:53:30;44.55;;;25.08;;
46875;SDS011;32866;50.160;14.768;2022-11-20T07:55:59;51.50;;;23.85;;
46875;SDS011;32866;50.160;14.768;2022-11-20T07:58:26;41.87;;;22.80;;
46875;SDS011;32866;50.160;14.768;2022-11-20T08:00:51;49.35;;;24.27;;
46875;SDS011;32866;50.160;14.768;2022-11-20T08:03:16;53.67;;;23.63;;
46875;SDS011;32866;50.160;14.768;2022-11-20T08:05:42;48.65;;;24.77;;
46875;SDS011;32866;50.160;14.768;2022-11-20T08:08:07;44.75;;;22.60;;
46875;SDS011;32866;50.160;14.768;2022-11-20T08:10:32;47.70;;;24.55;;
46875;SDS011;32866;50.160;14.768;2022-11-20T08:12:58;47.35;;;22.42;;
46875;SDS011;32866;50.160;14.768;2022-11-20T08:15:47;51.93;;;23.47;;
46875;SDS011;32866;50.160;14.768;2022-11-20T08:18:13;52.53;;;26.10;;
46875;SDS011;32866;50.160;14.768;2022-11-20T08:20:39;56.03;;;28.13;;
46875;SDS011;32866;50.160;14.768;2022-11-20T08:23:04;50.30;;;25.75;;
46875;SDS011;32866;50.160;14.768;2022-11-20T08:25:31;49.03;;;25.50;;
46875;SDS011;32866;50.160;14.768;2022-11-20T08:27:58;50.87;;;25.97;;
46875;SDS011;32866;50.160;14.768;2022-11-20T08:30:24;55.53;;;25.93;;
46875;SDS011;32866;50.160;14.768;2022-11-20T08:32:50;58.28;;;26.13;;
46875;SDS011;32866;50.160;14.768;2022-11-20T08:35:15;45.97;;;25.05;;
46875;SDS011;32866;50.160;14.768;2022-11-20T08:37:40;53.92;;;25.92;;
46875;SDS011;32866;50.160;14.768;2022-11-20T08:40:07;46.65;;;25.35;;
46875;SDS011;32866;50.160;14.768;2022-11-20T08:42:36;52.53;;;26.93;;
46875;SDS011;32866;50.160;14.768;2022-11-20T08:45:01;55.67;;;26.98;;
46875;SDS011;32866;50.160;14.768;2022-11-20T08:47:27;48.75;;;24.67;;
46875;SDS011;32866;50.160;14.768;2022-11-20T08:49:53;53.45;;;25.23;;
46875;SDS011;32866;50.160;14.768;2022-11-20T08:52:18;44.20;;;23.67;;
46875;SDS011;32866;50.160;14.768;2022-11-20T08:54:43;50.85;;;25.98;;
46875;SDS011;32866;50.160;14.768;2022-11-20T08:57:09;55.05;;;29.17;;
46875;SDS011;32866;50.160;14.768;2022-11-20T08:59:34;46.42;;;24.67;;
46875;SDS011;32866;50.160;14.768;2022-11-20T09:01:59;47.30;;;27.92;;
46875;SDS011;32866;50.160;14.768;2022-11-20T09:04:25;56.85;;;27.58;;
46875;SDS011;32866;50.160;14.768;2022-11-20T09:06:50;48.78;;;27.92;;
46875;SDS011;32866;50.160;14.768;2022-11-20T09:09:16;47.08;;;24.20;;
46875;SDS011;32866;50.160;14.768;2022-11-20T09:11:42;53.70;;;25.83;;
46875;SDS011;32866;50.160;14.768;2022-11-20T09:14:08;50.17;;;26.90;;
46875;SDS011;32866;50.160;14.768;2022-11-20T09:16:33;52.85;;;26.27;;
46875;SDS011;32866;50.160;14.768;2022-11-20T09:18:58;53.08;;;25.63;;
46875;SDS011;32866;50.160;14.768;2022-11-20T09:21:24;51.53;;;27.40;;
46875;SDS011;32866;50.160;14.768;2022-11-20T09:23:50;50.70;;;26.27;;
46875;SDS011;32866;50.160;14.768;2022-11-20T09:26:15;50.83;;;28.38;;
46875;SDS011;32866;50.160;14.768;2022-11-20T09:28:40;61.42;;;29.48;;
46875;SDS011;32866;50.160;14.768;2022-11-20T09:31:07;46.28;;;26.33;;
46875;SDS011;32866;50.160;14.768;2022-11-20T09:33:33;56.63;;;28.60;;
46875;SDS011;32866;50.160;14.768;2022-11-20T09:35:58;56.22;;;27.92;;
46875;SDS011;32866;50.160;14.768;2022-11-20T09:38:24;51.85;;;26.70;;
46875;SDS011;32866;50.160;14.768;2022-11-20T09:41:02;52.88;;;26.77;;
46875;SDS011;32866;50.160;14.768;2022-11-20T09:47:26;67.43;;;30.40;;
46875;SDS011;32866;50.160;14.768;2022-11-20T09:49:51;52.53;;;27.03;;
46875;SDS011;32866;50.160;14.768;2022-11-20T09:55:08;52.67;;;27.23;;
46875;SDS011;32866;50.160;14.768;2022-11-20T09:57:37;59.00;;;30.33;;
46875;SDS011;32866;50.160;14.768;2022-11-20T10:00:09;53.40;;;28.43;;
46875;SDS011;32866;50.160;14.768;2022-11-20T10:02:39;52.23;;;30.80;;
46875;SDS011;32866;50.160;14.768;2022-11-20T10:08:27;48.47;;;27.40;;
46875;SDS011;32866;50.160;14.768;2022-11-20T10:14:18;51.37;;;27.60;;
46875;SDS011;32866;50.160;14.768;2022-11-20T10:17:02;55.73;;;27.03;;
46875;SDS011;32866;50.160;14.768;2022-11-20T10:30:12;46.87;;;26.10;;
46875;SDS011;32866;50.160;14.768;2022-11-20T10:32:41;49.57;;;27.53;;
46875;SDS011;32866;50.160;14.768;2022-11-20T10:35:26;51.47;;;26.47;;
46875;SDS011;32866;50.160;14.768;2022-11-20T10:37:58;48.37;;;26.13;;
46875;SDS011;32866;50.160;14.768;2022-11-20T10:46:08;51.90;;;26.10;;
46875;SDS011;32866;50.160;14.768;2022-11-20T10:48:37;50.43;;;27.03;;
46875;SDS011;32866;50.160;14.768;2022-11-20T10:54:15;54.33;;;28.07;;
46875;SDS011;32866;50.160;14.768;2022-11-20T10:56:48;41.77;;;24.40;;
46875;SDS011;32866;50.160;14.768;2022-11-20T10:59:25;46.13;;;25.67;;
46875;SDS011;32866;50.160;14.768;2022-11-20T11:02:00;51.57;;;26.33;;
46875;SDS011;32866;50.160;14.768;2022-11-20T11:06:54;58.57;;;27.80;;
46875;SDS011;32866;50.160;14.768;2022-11-20T11:09:33;53.03;;;26.90;;
46875;SDS011;32866;50.160;14.768;2022-11-20T11:12:05;53.10;;;28.60;;
46875;SDS011;32866;50.160;14.768;2022-11-20T11:14:41;54.07;;;27.63;;
46875;SDS011;32866;50.160;14.768;2022-11-20T11:17:24;54.50;;;29.20;;
46875;SDS011;32866;50.160;14.768;2022-11-20T11:22:42;57.13;;;29.20;;
46875;SDS011;32866;50.160;14.768;2022-11-20T11:25:29;47.80;;;27.13;;
46875;SDS011;32866;50.160;14.768;2022-11-20T11:28:03;54.67;;;28.10;;
46875;SDS011;32866;50.160;14.768;2022-11-20T11:30:44;49.73;;;27.70;;
46875;SDS011;32866;50.160;14.768;2022-11-20T11:33:11;53.85;;;27.02;;
46875;SDS011;32866;50.160;14.768;2022-11-20T11:35:44;57.17;;;29.37;;
46875;SDS011;32866;50.160;14.768;2022-11-20T11:38:14;53.67;;;27.60;;
46875;SDS011;32866;50.160;14.768;2022-11-20T11:40:43;46.57;;;27.03;;
46875;SDS011;32866;50.160;14.768;2022-11-20T11:43:17;49.60;;;26.50;;
46875;SDS011;32866;50.160;14.768;2022-11-20T11:46:04;49.17;;;27.20;;
46875;SDS011;32866;50.160;14.768;2022-11-20T11:54:24;47.53;;;26.40;;
46875;SDS011;32866;50.160;14.768;2022-11-20T11:56:53;52.97;;;28.10;;
46875;SDS011;32866;50.160;14.768;2022-11-20T11:59:27;55.40;;;27.10;;
46875;SDS011;32866;50.160;14.768;2022-11-20T12:02:04;53.30;;;27.27;;
46875;SDS011;32866;50.160;14.768;2022-11-20T12:04:50;45.43;;;23.87;;
46875;SDS011;32866;50.160;14.768;2022-11-20T12:07:29;51.33;;;27.00;;
46875;SDS011;32866;50.160;14.768;2022-11-20T12:10:04;54.77;;;27.33;;
46875;SDS011;32866;50.160;14.768;2022-11-20T12:12:38;50.20;;;27.40;;
46875;SDS011;32866;50.160;14.768;2022-11-20T12:15:12;45.40;;;25.83;;
46875;SDS011;32866;50.160;14.768;2022-11-20T12:17:47;54.10;;;27.77;;
46875;SDS011;32866;50.160;14.768;2022-11-20T12:20:13;50.95;;;27.60;;
46875;SDS011;32866;50.160;14.768;2022-11-20T12:22:42;52.23;;;27.07;;
46875;SDS011;32866;50.160;14.768;2022-11-20T12:25:19;53.60;;;26.77;;
46875;SDS011;32866;50.160;14.768;2022-11-20T12:30:36;52.30;;;28.07;;
46875;SDS011;32866;50.160;14.768;2022-11-20T12:38:36;44.93;;;26.43;;
46875;SDS011;32866;50.160;14.768;2022-11-20T12:44:16;50.50;;;26.80;;
46875;SDS011;32866;50.160;14.768;2022-11-20T12:52:39;47.23;;;27.23;;
46875;SDS011;32866;50.160;14.768;2022-11-20T12:58:51;51.57;;;26.63;;
46875;SDS011;32866;50.160;14.768;2022-11-20T13:01:16;50.93;;;24.67;;
46875;SDS011;32866;50.160;14.768;2022-11-20T13:07:00;50.83;;;26.17;;
46875;SDS011;32866;50.160;14.768;2022-11-20T13:09:28;48.53;;;28.90;;
46875;SDS011;32866;50.160;14.768;2022-11-20T13:20:04;49.37;;;27.97;;
46875;SDS011;32866;50.160;14.768;2022-11-20T13:22:47;54.23;;;29.33;;
46875;SDS011;32866;50.160;14.768;2022-11-20T13:25:31;52.70;;;29.73;;
46875;SDS011;32866;50.160;14.768;2022-11-20T13:28:00;53.53;;;30.40;;
46875;SDS011;32866;50.160;14.768;2022-11-20T13:30:31;52.57;;;28.40;;
46875;SDS011;32866;50.160;14.768;2022-11-20T13:33:05;54.70;;;29.13;;
46875;SDS011;32866;50.160;14.768;2022-11-20T13:38:03;65.57;;;38.47;;
46875;SDS011;32866;50.160;14.768;2022-11-20T13:40:29;52.17;;;29.37;;
46875;SDS011;32866;50.160;14.768;2022-11-20T13:45:27;54.50;;;28.17;;
46875;SDS011;32866;50.160;14.768;2022-11-20T13:47:55;52.07;;;28.47;;
46875;SDS011;32866;50.160;14.768;2022-11-20T13:50:27;56.33;;;28.47;;
46875;SDS011;32866;50.160;14.768;2022-11-20T13:53:06;49.20;;;28.17;;
46875;SDS011;32866;50.160;14.768;2022-11-20T13:55:37;53.20;;;29.23;;
46875;SDS011;32866;50.160;14.768;2022-11-20T14:00:57;52.17;;;27.53;;
46875;SDS011;32866;50.160;14.768;2022-11-20T14:03:28;51.30;;;28.33;;
46875;SDS011;32866;50.160;14.768;2022-11-20T14:05:59;48.80;;;27.63;;
46875;SDS011;32866;50.160;14.768;2022-11-20T14:11:15;58.00;;;28.17;;
46875;SDS011;32866;50.160;14.768;2022-11-20T14:16:30;56.80;;;28.50;;
46875;SDS011;32866;50.160;14.768;2022-11-20T14:18:57;49.90;;;26.83;;
46875;SDS011;32866;50.160;14.768;2022-11-20T14:21:42;48.07;;;27.27;;
46875;SDS011;32866;50.160;14.768;2022-11-20T14:24:10;45.92;;;26.98;;
46875;SDS011;32866;50.160;14.768;2022-11-20T14:26:37;48.03;;;26.67;;
46875;SDS011;32866;50.160;14.768;2022-11-20T14:29:17;57.43;;;30.30;;
46875;SDS011;32866;50.160;14.768;2022-11-20T14:31:44;55.47;;;29.87;;
46875;SDS011;32866;50.160;14.768;2022-11-20T14:34:16;54.63;;;28.53;;
46875;SDS011;32866;50.160;14.768;2022-11-20T14:36:44;56.40;;;29.80;;
46875;SDS011;32866;50.160;14.768;2022-11-20T14:39:22;50.92;;;27.33;;
46875;SDS011;32866;50.160;14.768;2022-11-20T14:41:53;51.33;;;25.30;;
46875;SDS011;32866;50.160;14.768;2022-11-20T14:44:23;54.40;;;29.88;;
46875;SDS011;32866;50.160;14.768;2022-11-20T14:47:00;47.60;;;25.63;;
46875;SDS011;32866;50.160;14.768;2022-11-20T14:49:27;54.33;;;29.63;;
46875;SDS011;32866;50.160;14.768;2022-11-20T14:52:00;53.33;;;29.40;;
46875;SDS011;32866;50.160;14.768;2022-11-20T14:54:26;53.27;;;28.93;;
46875;SDS011;32866;50.160;14.768;2022-11-20T14:56:57;57.90;;;28.70;;
46875;SDS011;32866;50.160;14.768;2022-11-20T14:59:24;54.63;;;29.17;;
46875;SDS011;32866;50.160;14.768;2022-11-20T15:01:59;50.93;;;28.43;;
46875;SDS011;32866;50.160;14.768;2022-11-20T15:04:26;53.90;;;30.00;;
46875;SDS011;32866;50.160;14.768;2022-11-20T15:06:56;53.63;;;27.50;;
46875;SDS011;32866;50.160;14.768;2022-11-20T15:09:23;50.50;;;29.10;;
46875;SDS011;32866;50.160;14.768;2022-11-20T15:14:22;52.60;;;27.60;;
46875;SDS011;32866;50.160;14.768;2022-11-20T15:16:49;49.30;;;28.87;;
46875;SDS011;32866;50.160;14.768;2022-11-20T15:19:16;51.33;;;28.77;;
46875;SDS011;32866;50.160;14.768;2022-11-20T15:21:44;53.97;;;28.33;;
46875;SDS011;32866;50.160;14.768;2022-11-20T15:24:09;57.00;;;30.23;;
46875;SDS011;32866;50.160;14.768;2022-11-20T15:26:35;60.03;;;30.40;;
46875;SDS011;32866;50.160;14.768;2022-11-20T15:29:04;55.07;;;29.27;;
46875;SDS011;32866;50.160;14.768;2022-11-20T15:31:33;52.97;;;29.03;;
46875;SDS011;32866;50.160;14.768;2022-11-20T15:33:59;54.97;;;26.63;;
46875;SDS011;32866;50.160;14.768;2022-11-20T15:36:25;55.80;;;29.00;;
46875;SDS011;32866;50.160;14.768;2022-11-20T15:38:50;50.42;;;26.25;;
46875;SDS011;32866;50.160;14.768;2022-11-20T15:41:15;48.05;;;27.60;;
46875;SDS011;32866;50.160;14.768;2022-11-20T15:43:41;51.10;;;29.58;;
46875;SDS011;32866;50.160;14.768;2022-11-20T15:46:09;56.50;;;28.25;;
46875;SDS011;32866;50.160;14.768;2022-11-20T15:48:38;45.70;;;26.17;;
46875;SDS011;32866;50.160;14.768;2022-11-20T15:51:06;57.10;;;30.23;;
46875;SDS011;32866;50.160;14.768;2022-11-20T15:53:36;53.13;;;30.27;;
46875;SDS011;32866;50.160;14.768;2022-11-20T15:56:13;50.77;;;27.50;;
46875;SDS011;32866;50.160;14.768;2022-11-20T15:58:39;55.77;;;28.13;;
46875;SDS011;32866;50.160;14.768;2022-11-20T16:01:08;54.13;;;28.73;;
46875;SDS011;32866;50.160;14.768;2022-11-20T16:03:35;53.87;;;28.37;;
46875;SDS011;32866;50.160;14.768;2022-11-20T16:06:01;50.67;;;26.73;;
46875;SDS011;32866;50.160;14.768;2022-11-20T16:08:26;48.53;;;27.20;;
46875;SDS011;32866;50.160;14.768;2022-11-20T16:10:52;60.75;;;28.35;;
46875;SDS011;32866;50.160;14.768;2022-11-20T16:13:17;54.08;;;28.67;;
46875;SDS011;32866;50.160;14.768;2022-11-20T16:16:10;62.20;;;30.33;;
46875;SDS011;32866;50.160;14.768;2022-11-20T16:18:44;51.50;;;29.53;;
46875;SDS011;32866;50.160;14.768;2022-11-20T16:21:10;56.85;;;29.80;;
46875;SDS011;32866;50.160;14.768;2022-11-20T16:23:36;51.97;;;25.40;;
46875;SDS011;32866;50.160;14.768;2022-11-20T16:26:08;54.78;;;29.90;;
46875;SDS011;32866;50.160;14.768;2022-11-20T16:28:38;56.87;;;28.37;;
46875;SDS011;32866;50.160;14.768;2022-11-20T16:31:16;56.83;;;29.13;;
46875;SDS011;32866;50.160;14.768;2022-11-20T16:33:48;52.23;;;28.37;;
46875;SDS011;32866;50.160;14.768;2022-11-20T16:36:18;55.67;;;29.23;;
46875;SDS011;32866;50.160;14.768;2022-11-20T16:38:44;52.63;;;27.70;;
46875;SDS011;32866;50.160;14.768;2022-11-20T16:41:12;62.53;;;31.08;;
46875;SDS011;32866;50.160;14.768;2022-11-20T16:43:43;58.63;;;28.90;;
46875;SDS011;32866;50.160;14.768;2022-11-20T16:46:10;58.90;;;30.00;;
46875;SDS011;32866;50.160;14.768;2022-11-20T16:48:36;63.63;;;30.48;;
46875;SDS011;32866;50.160;14.768;2022-11-20T16:51:01;58.45;;;29.90;;
46875;SDS011;32866;50.160;14.768;2022-11-20T16:53:27;62.92;;;30.90;;
46875;SDS011;32866;50.160;14.768;2022-11-20T16:55:52;50.47;;;29.45;;
46875;SDS011;32866;50.160;14.768;2022-11-20T16:58:18;61.65;;;29.77;;
46875;SDS011;32866;50.160;14.768;2022-11-20T17:00:43;60.15;;;30.45;;
46875;SDS011;32866;50.160;14.768;2022-11-20T17:05:34;60.10;;;29.30;;
46875;SDS011;32866;50.160;14.768;2022-11-20T17:10:31;55.77;;;28.37;;
46875;SDS011;32866;50.160;14.768;2022-11-20T17:12:57;57.13;;;29.13;;
46875;SDS011;32866;50.160;14.768;2022-11-20T17:15:22;54.60;;;28.90;;
46875;SDS011;32866;50.160;14.768;2022-11-20T17:17:47;51.88;;;27.73;;
46875;SDS011;32866;50.160;14.768;2022-11-20T17:20:13;61.70;;;31.38;;
46875;SDS011;32866;50.160;14.768;2022-11-20T17:22:38;64.53;;;32.65;;
46875;SDS011;32866;50.160;14.768;2022-11-20T17:25:04;55.45;;;27.80;;
46875;SDS011;32866;50.160;14.768;2022-11-20T17:27:29;61.65;;;29.38;;
46875;SDS011;32866;50.160;14.768;2022-11-20T17:29:54;50.10;;;28.70;;
46875;SDS011;32866;50.160;14.768;2022-11-20T17:32:21;54.47;;;28.20;;
46875;SDS011;32866;50.160;14.768;2022-11-20T17:34:47;56.53;;;28.88;;
46875;SDS011;32866;50.160;14.768;2022-11-20T17:37:12;66.72;;;33.40;;
46875;SDS011;32866;50.160;14.768;2022-11-20T17:39:37;51.00;;;29.02;;
46875;SDS011;32866;50.160;14.768;2022-11-20T17:42:04;56.93;;;28.83;;
46875;SDS011;32866;50.160;14.768;2022-11-20T17:44:48;59.33;;;30.47;;
46875;SDS011;32866;50.160;14.768;2022-11-20T17:47:13;55.33;;;30.20;;
46875;SDS011;32866;50.160;14.768;2022-11-20T17:49:39;56.92;;;29.48;;
46875;SDS011;32866;50.160;14.768;2022-11-20T17:52:04;58.20;;;29.20;;
46875;SDS011;32866;50.160;14.768;2022-11-20T17:54:29;52.92;;;29.17;;
46875;SDS011;32866;50.160;14.768;2022-11-20T17:56:55;60.33;;;31.52;;
46875;SDS011;32866;50.160;14.768;2022-11-20T17:59:39;51.50;;;29.53;;
46875;SDS011;32866;50.160;14.768;2022-11-20T18:02:04;54.78;;;29.00;;
46875;SDS011;32866;50.160;14.768;2022-11-20T18:04:29;58.88;;;30.02;;
46875;SDS011;32866;50.160;14.768;2022-11-20T18:06:55;54.67;;;31.60;;
46875;SDS011;32866;50.160;14.768;2022-11-20T18:09:20;61.55;;;30.67;;
46875;SDS011;32866;50.160;14.768;2022-11-20T18:11:45;57.20;;;31.23;;
46875;SDS011;32866;50.160;14.768;2022-11-20T18:14:13;57.38;;;29.08;;
46875;SDS011;32866;50.160;14.768;2022-11-20T18:17:00;68.33;;;34.30;;
46875;SDS011;32866;50.160;14.768;2022-11-20T18:19:26;75.73;;;37.03;;
46875;SDS011;32866;50.160;14.768;2022-11-20T18:21:53;72.73;;;38.03;;
46875;SDS011;32866;50.160;14.768;2022-11-20T18:24:19;75.38;;;36.90;;
46875;SDS011;32866;50.160;14.768;2022-11-20T18:26:45;69.90;;;34.83;;
46875;SDS011;32866;50.160;14.768;2022-11-20T18:29:11;63.10;;;33.30;;
46875;SDS011;32866;50.160;14.768;2022-11-20T18:31:38;73.07;;;37.33;;